Detall de PIREP

Printer-friendly versionPDF version

[2008/12/26 22:23:00]
Flight IATA:CT1004
Pilot Number:026
Company ICAO:CAT
Aircraft Type:B752/E
PAX:180
Departing Airport: LEBL
Destination Airport: LFSB
Alternate Airport:LSGG
Online: VATSIM
Route:DALIN UN870 MAXIR UN853 MOLUS UN871 KONOL Z59 LUMEL
Flight Level:FL340
No Slew and time accel
No pause
Crash detect
Detect pilot in Cockpit between each 30 and 45 minutes
22:23 Zero fuel Weight: 197042 Lbs, Fuel Weight: 21097 Lbs
22:23 VATSIM:LEBL 262100Z 08031G41KT 040V100 8000 DZ SCT012 BKN035 10/07 Q1013 NOSIG
22:23 VATSIM:LFSB 262100Z 30004KT CAVOK M03/M06 Q1029 NOSIG
22:23 VOICE CATALONIAN / X-MAS CHARTER
22:26 Parking Brakes off
22:41 Take-off
22:41 Take off Weight: 216379 Lbs
22:41 Wind: 056º @ 030 Knots Heading: 065º
22:41 POS N41º 17´ 15´´ E002º 05´ 23´´
22:41 Flaps:2 at 191 Knots
22:41 Gear Up: 190 Knots
22:42 Flaps:1 at 243 Knots
22:42 Flaps:0 at 178 Knots

22:53 TOC
22:53 Fuel Weight: 15425 Lb
22:56 Wind:062º@057 Knots Heading: 081º Ground Speed: 306 Knots Altitude 34055 ft
23:11 Wind:031º@035 Knots Heading: 041º Ground Speed: 419 Knots Altitude 34232 ft
23:26 Wind:040º@028 Knots Heading: 027º Ground Speed: 427 Knots Altitude 34288 ft
23:41 Wind:352º@024 Knots Heading: 357º Ground Speed: 425 Knots Altitude 34366 ft
23:45 TOD
23:45 Fuel Weight: 8228 Lb
23:56 Wind:001º@013 Knots Heading: 317º Ground Speed: 340 Knots Altitude 15383 ft
00:11 Wind:357º@017 Knots Heading: 092º Ground Speed: 217 Knots Altitude 5853 ft
00:15 Gear Down: 185 Knots
00:15 Flaps:1 at 185 Knots
00:15 Flaps:2 at 185 Knots
00:16 Flaps:3 at 188 Knots
00:16 Flaps:4 at 195 Knots
00:17 Flaps:5 at 192 Knots
00:17 TouchDown:Rate -449 ft/min Speed: 162 Knots
00:17 VATSIM:LFSB 262300Z VRB01KT CAVOK M04/M06 Q1029 NOSIG
00:17 Land
00:17 Wind:356º@009
Knots
00:17 Heading: 156º
00:17 Flight Duration: 01:36
00:17 Landing Weight: 202780 Lbs
00:17 POS N47º 35´ 45´´ E007º 31´ 30´´
00:20 Parking brakes on
00:20 Block to Block Duration: 01:54
00:20 Final Fuel: 5493 Lbls
00:20 Spent Fuel: 15604 Lbls
00:20 Flight Length: 553 NM
00:20 TOD Land Length: 148 NM

Exportar CSV

Powered by Drupal - Modified by Danger4k